US-0225 weather

Treasure Island Helipad
San Francisco, California, United States

Public forecast

Using degrees Fahrenheit for public forecast. Weather courtesy of forecast.io.

METAR (pilot weather report)

Closest report is Metropolitan Oakland International Airport, 9.0 nm (16.7 km) SE. Retrieved 2019/06/17 16:53 UTC (1 hour ago):

KOAK 171653Z 19006KT 10SM FEW012 FEW250 17/12 A2987 RMK AO2 SLP114 T01720122

TAF (pilot weather forecast)

Closest forecast is Metropolitan Oakland International Airport, 9.0 nm (16.7 km) SE. Retrieved 2019/06/17 12:42 UTC (5 hours ago):

TAF KOAK 171140Z 1712/1818 29008KT P6SM OVC010 TEMPO 1712/1716 OVC008 FM171700 24006KT P6SM SCT010 FM172000 30011KT P6SM FEW012 FM180400 31006KT P6SM FEW010 FM180600 30004KT P6SM OVC010